createdAt,value
2022-08-07T04:01:22.420Z,101198.33
2022-08-07T04:03:55.023Z,101195.90
2022-08-07T04:06:37.402Z,101197.31
2022-08-07T04:09:16.184Z,101197.02
2022-08-07T04:12:25.795Z,101197.80
2022-08-07T04:14:43.572Z,101203.13
2022-08-07T04:18:11.187Z,101204.18
2022-08-07T04:20:11.208Z,101205.61
2022-08-07T04:22:41.336Z,101207.31
2022-08-07T04:25:23.652Z,101210.17
2022-08-07T04:28:00.687Z,101209.99
2022-08-07T04:30:35.775Z,101209.91
2022-08-07T04:33:25.802Z,101208.48
2022-08-07T04:35:54.479Z,101209.40
2022-08-07T04:38:29.077Z,101204.77
2022-08-07T04:40:58.154Z,101208.44
2022-08-07T04:44:10.578Z,101208.46
2022-08-07T04:47:04.116Z,101211.48
2022-08-07T04:49:57.789Z,101207.03
2022-08-07T04:52:51.325Z,101208.77
2022-08-07T04:58:10.697Z,101208.39
2022-08-07T04:59:07.755Z,101210.98
2022-08-07T05:01:45.199Z,101212.95
2022-08-07T05:04:47.233Z,101210.23
2022-08-07T05:07:36.803Z,101209.25
2022-08-07T05:10:32.872Z,101209.53
2022-08-07T05:14:53.823Z,101210.80
2022-08-07T05:16:04.405Z,101210.88
2022-08-07T05:18:38.813Z,101209.92
2022-08-07T05:21:12.610Z,101213.57
2022-08-07T05:23:55.787Z,101215.01
2022-08-07T05:26:28.126Z,101215.23
2022-08-07T05:29:05.020Z,101216.62
2022-08-07T05:31:39.579Z,101214.52
2022-08-07T05:34:17.197Z,101215.96
2022-08-07T05:36:52.726Z,101216.39
2022-08-07T05:40:16.532Z,101218.73
2022-08-07T05:42:33.613Z,101212.29
2022-08-07T05:45:26.157Z,101211.46
2022-08-07T05:48:02.466Z,101201.35
2022-08-07T05:50:44.574Z,101198.14
2022-08-07T05:54:09.541Z,101194.63
2022-08-07T05:56:06.755Z,101190.97
2022-08-07T05:58:41.975Z,101186.55
2022-08-07T06:01:23.539Z,101188.53
2022-08-07T06:04:01.035Z,101186.48
2022-08-07T06:06:36.104Z,101185.89
2022-08-07T06:09:06.708Z,101186.39
2022-08-07T06:11:39.798Z,101185.36
2022-08-07T06:14:11.546Z,101182.70
2022-08-07T06:16:45.777Z,101183.08
2022-08-07T06:19:52.318Z,101182.40
2022-08-07T06:22:15.470Z,101185.38
2022-08-07T06:24:57.892Z,101184.07
2022-08-07T06:27:59.834Z,101192.28
2022-08-07T06:30:31.783Z,101189.02
2022-08-07T06:33:04.819Z,101189.08
2022-08-07T06:35:45.261Z,101194.75
2022-08-07T06:38:19.323Z,101195.17
2022-08-07T06:40:54.253Z,101194.13
2022-08-07T06:43:25.002Z,101196.05
2022-08-07T06:46:12.181Z,101198.57
2022-08-07T06:48:44.701Z,101201.64
2022-08-07T06:51:31.295Z,101204.18
2022-08-07T06:55:30.063Z,101207.80
2022-08-07T06:56:57.231Z,101211.53
2022-08-07T07:00:14.657Z,101214.48
2022-08-07T07:02:53.608Z,101214.62
2022-08-07T07:06:03.948Z,101222.84
2022-08-07T07:08:07.175Z,101219.06
2022-08-07T07:10:38.935Z,101221.23
2022-08-07T07:13:56.672Z,101223.95
2022-08-07T07:16:45.427Z,101225.98
2022-08-07T07:19:56.513Z,101225.77
2022-08-07T07:22:40.011Z,101220.41
2022-08-07T07:26:31.168Z,101216.29
2022-08-07T07:28:03.066Z,101217.48
2022-08-07T07:35:00.730Z,101211.84
2022-08-07T07:37:49.501Z,101214.48
2022-08-07T07:40:26.144Z,101213.30
2022-08-07T07:42:57.544Z,101209.80
2022-08-07T07:46:36.868Z,101212.20
2022-08-07T07:48:35.412Z,101214.02
2022-08-07T07:51:07.997Z,101211.67
2022-08-07T07:53:52.631Z,101209.18
2022-08-07T07:56:30.005Z,101202.70
2022-08-07T07:59:05.927Z,101205.14
2022-08-07T08:02:02.212Z,101205.32
2022-08-07T08:04:32.498Z,101205.66
2022-08-07T08:07:07.619Z,101208.37
2022-08-07T08:09:52.586Z,101205.90
2022-08-07T08:12:52.476Z,101207.67
2022-08-07T08:15:17.567Z,101206.69
2022-08-07T08:17:57.097Z,101208.95
2022-08-07T08:20:32.348Z,101205.18
2022-08-07T08:23:20.778Z,101204.97
2022-08-07T08:26:18.805Z,101201.41
2022-08-07T08:28:51.631Z,101206.21
2022-08-07T08:32:16.751Z,101210.63
2022-08-07T08:34:36.523Z,101210.78
2022-08-07T08:37:09.965Z,101205.28
2022-08-07T08:39:58.447Z,101204.15
2022-08-07T08:42:59.010Z,101201.66
2022-08-07T08:46:00.848Z,101209.94
2022-08-07T08:48:41.918Z,101213.36
2022-08-07T08:51:49.473Z,101214.99
2022-08-07T08:54:25.590Z,101212.35
2022-08-07T08:56:57.740Z,101213.02
2022-08-07T08:59:42.154Z,101210.39
2022-08-07T09:02:36.754Z,101205.86
2022-08-07T09:05:48.672Z,101206.54
2022-08-07T09:08:24.406Z,101201.42
2022-08-07T09:11:08.258Z,101197.49
2022-08-07T09:14:12.017Z,101201.38
2022-08-07T09:16:58.185Z,101201.63
2022-08-07T09:19:55.173Z,101195.69
2022-08-07T09:24:33.016Z,101194.23
2022-08-07T09:25:59.156Z,101193.29
2022-08-07T09:30:05.650Z,101190.29
2022-08-07T09:31:55.171Z,101189.52
2022-08-07T09:34:29.839Z,101187.54
2022-08-07T09:37:06.619Z,101180.48
2022-08-07T09:40:06.596Z,101176.75
2022-08-07T09:42:56.205Z,101175.36
2022-08-07T09:47:55.665Z,101173.20
2022-08-07T09:50:02.458Z,101172.73
2022-08-07T09:52:51.777Z,101174.42
2022-08-07T09:55:29.426Z,101168.55
2022-08-07T09:58:26.214Z,101169.14
2022-08-07T10:01:02.090Z,101163.30
2022-08-07T10:04:14.425Z,101164.39
2022-08-07T10:07:31.713Z,101161.31
2022-08-07T10:10:21.272Z,101154.98
2022-08-07T10:12:59.190Z,101150.67
2022-08-07T10:15:44.537Z,101151.38
2022-08-07T10:18:29.607Z,101146.76
2022-08-07T10:21:50.392Z,101146.55
2022-08-07T10:24:25.990Z,101140.19
2022-08-07T10:27:13.341Z,101141.34
2022-08-07T10:30:04.354Z,101134.19
2022-08-07T10:33:09.232Z,101131.81
2022-08-07T10:36:11.398Z,101126.85
2022-08-07T10:38:51.139Z,101119.89
2022-08-07T10:41:52.893Z,101116.98
2022-08-07T10:44:37.806Z,101110.48
2022-08-07T10:47:27.215Z,101108.93
2022-08-07T10:50:15.037Z,101106.57
2022-08-07T10:53:08.929Z,101102.97
2022-08-07T10:55:57.464Z,101098.76
2022-08-07T10:58:59.608Z,101096.65
2022-08-07T11:01:35.141Z,101102.27
2022-08-07T11:04:23.334Z,101101.27
2022-08-07T11:07:56.926Z,101098.10
2022-08-07T11:10:17.763Z,101099.90
2022-08-07T11:13:03.068Z,101097.17
2022-08-07T11:15:36.199Z,101095.95
2022-08-07T11:18:35.631Z,101090.98
2022-08-07T11:21:15.656Z,101090.02
2022-08-07T11:24:04.602Z,101087.23
2022-08-07T11:26:50.032Z,101093.88
2022-08-07T11:29:41.745Z,101097.45
2022-08-07T11:32:25.385Z,101096.88
2022-08-07T11:34:58.908Z,101096.11
2022-08-07T11:37:57.952Z,101094.43
2022-08-07T11:40:59.735Z,101091.83
2022-08-07T11:43:54.327Z,101090.05
2022-08-07T11:46:28.098Z,101089.33
2022-08-07T11:50:25.223Z,101087.54
2022-08-07T11:52:42.187Z,101084.63
2022-08-07T11:56:25.568Z,101078.62
2022-08-07T11:58:40.962Z,101078.16
2022-08-07T12:01:22.177Z,101079.72
2022-08-07T12:04:03.874Z,101072.60
2022-08-07T12:06:51.590Z,101073.21
2022-08-07T12:09:48.997Z,101067.25
2022-08-07T12:12:46.896Z,101067.77
2022-08-07T12:15:35.881Z,101064.11
2022-08-07T12:18:29.903Z,101059.48
2022-08-07T12:22:36.211Z,101056.15
2022-08-07T12:25:07.771Z,101060.23
2022-08-07T12:28:08.979Z,101056.05
2022-08-07T12:30:46.694Z,101057.84
2022-08-07T12:33:28.470Z,101057.33
2022-08-07T12:36:02.294Z,101051.73
2022-08-07T12:38:42.927Z,101049.45
2022-08-07T12:41:18.428Z,101046.68
2022-08-07T12:44:03.525Z,101043.35
2022-08-07T12:46:37.290Z,101042.39
2022-08-07T12:49:40.112Z,101039.89
2022-08-07T12:52:17.904Z,101035.30
2022-08-07T12:55:05.165Z,101033.90
2022-08-07T12:58:00.461Z,101028.30
2022-08-07T13:00:52.533Z,101029.55
2022-08-07T13:04:00.559Z,101025.56
2022-08-07T13:07:03.159Z,101022.23
2022-08-07T13:10:28.361Z,101019.29
2022-08-07T13:12:52.371Z,101019.73
2022-08-07T13:15:35.150Z,101017.01
2022-08-07T13:18:26.471Z,101016.38
2022-08-07T13:21:37.146Z,101013.20
2022-08-07T13:24:15.984Z,101016.05
2022-08-07T13:27:06.713Z,101016.27
2022-08-07T13:29:47.837Z,101016.44
2022-08-07T13:32:32.611Z,101017.83
2022-08-07T13:35:16.082Z,101017.73
2022-08-07T13:38:00.919Z,101017.52
2022-08-07T13:40:42.488Z,101017.86
2022-08-07T13:43:16.194Z,101010.50
2022-08-07T13:46:11.893Z,101014.48
2022-08-07T13:48:39.043Z,101008.13
2022-08-07T13:51:26.995Z,101006.23
2022-08-07T13:54:03.502Z,101007.35
2022-08-07T13:56:36.149Z,101002.64
2022-08-07T13:59:20.070Z,101001.05
2022-08-07T14:02:08.147Z,100998.41
2022-08-07T14:05:02.147Z,100995.88
2022-08-07T14:08:00.628Z,100990.58
2022-08-07T14:10:42.376Z,100984.28
2022-08-07T14:13:18.146Z,100983.56
2022-08-07T14:15:54.463Z,100975.99
2022-08-07T14:18:33.216Z,100978.54
2022-08-07T14:22:00.921Z,100980.14
2022-08-07T14:24:14.172Z,100970.42
2022-08-07T14:26:52.223Z,100968.34
2022-08-07T14:30:09.434Z,100966.48
2022-08-07T14:32:15.082Z,100962.52
2022-08-07T14:34:47.295Z,100961.94
2022-08-07T14:37:17.861Z,100962.67
2022-08-07T14:40:16.470Z,100959.92
2022-08-07T14:43:01.424Z,100959.39
2022-08-07T14:45:46.590Z,100959.51
2022-08-07T14:48:22.233Z,100961.10
2022-08-07T14:51:00.464Z,100956.25
2022-08-07T14:54:08.824Z,100959.02
2022-08-07T14:56:29.580Z,100958.45
2022-08-07T14:59:14.083Z,100960.60
2022-08-07T15:05:01.768Z,100960.56
2022-08-07T15:07:51.229Z,100956.96
2022-08-07T15:10:26.545Z,100953.77
2022-08-07T15:13:06.419Z,100953.58
2022-08-07T15:15:52.202Z,100951.11
2022-08-07T15:18:34.915Z,100949.83
2022-08-07T15:21:44.288Z,100947.70
2022-08-07T15:25:13.546Z,100947.91
2022-08-07T15:27:11.262Z,100941.98
2022-08-07T15:30:04.836Z,100941.68
2022-08-07T15:32:40.026Z,100941.20
2022-08-07T15:35:26.633Z,100940.84
2022-08-07T15:44:15.256Z,100937.96
2022-08-07T15:46:51.790Z,100935.08
2022-08-07T15:50:03.733Z,100934.28
2022-08-07T15:52:30.538Z,100928.95
2022-08-07T15:55:03.912Z,100935.88
2022-08-07T15:57:48.504Z,100934.67
2022-08-07T16:00:31.216Z,100932.22
2022-08-07T16:03:22.043Z,100925.84
2022-08-07T16:06:06.663Z,100926.70
2022-08-07T16:08:42.711Z,100924.41
2022-08-07T16:11:31.470Z,100927.28
2022-08-07T16:14:39.120Z,100926.30
2022-08-07T16:18:02.553Z,100926.89
2022-08-07T16:20:42.526Z,100929.02
2022-08-07T16:23:53.458Z,100929.39
2022-08-07T16:26:30.480Z,100922.52
2022-08-07T16:30:11.033Z,100923.47
2022-08-07T16:32:34.940Z,100925.59
2022-08-07T16:35:52.403Z,100923.84
2022-08-07T16:39:01.424Z,100921.94
2022-08-07T16:41:55.836Z,100926.58
2022-08-07T16:44:47.547Z,100919.73
2022-08-07T16:47:49.651Z,100920.00
2022-08-07T16:50:38.915Z,100920.96
2022-08-07T16:54:02.567Z,100923.27
2022-08-07T16:56:44.226Z,100919.46
2022-08-07T16:59:20.647Z,100919.48
2022-08-07T17:01:57.467Z,100919.54
2022-08-07T17:04:50.993Z,100920.56
2022-08-07T17:07:57.920Z,100924.52
2022-08-07T17:10:54.220Z,100923.46
2022-08-07T17:14:18.340Z,100925.15
2022-08-07T17:16:55.850Z,100923.98
2022-08-07T17:20:01.896Z,100922.97
2022-08-07T17:22:46.471Z,100926.63
2022-08-07T17:25:47.485Z,100931.19
2022-08-07T17:28:25.405Z,100929.91
2022-08-07T17:31:16.465Z,100932.66
2022-08-07T17:34:32.702Z,100933.34
2022-08-07T17:36:48.984Z,100933.59
2022-08-07T17:39:57.883Z,100934.29
2022-08-07T17:42:59.472Z,100934.91
2022-08-07T17:45:37.201Z,100938.70
2022-08-07T17:48:16.838Z,100943.64
2022-08-07T17:51:21.476Z,100946.83
2022-08-07T17:54:39.570Z,100948.56
2022-08-07T17:57:24.031Z,100951.02
2022-08-07T18:00:14.254Z,100948.11
2022-08-07T18:03:18.168Z,100951.48
2022-08-07T18:06:03.726Z,100949.89
2022-08-07T18:09:00.647Z,100955.92
2022-08-07T18:12:18.116Z,100959.66
2022-08-07T18:14:46.113Z,100963.09
2022-08-07T18:18:33.045Z,100962.87
2022-08-07T18:21:08.044Z,100969.11
2022-08-07T18:24:33.163Z,100974.30
2022-08-07T18:27:20.908Z,100970.05
2022-08-07T18:30:06.736Z,100971.26
2022-08-07T18:32:56.195Z,100971.81
2022-08-07T18:35:57.223Z,100973.33
2022-08-07T18:40:06.589Z,100978.05
2022-08-07T18:42:16.726Z,100982.30
2022-08-07T18:45:43.596Z,100981.44
2022-08-07T18:48:04.924Z,100984.58
2022-08-07T18:51:14.906Z,100987.99
2022-08-07T18:53:55.465Z,100991.06
2022-08-07T18:56:37.645Z,100992.87
2022-08-07T18:59:46.821Z,100997.11
2022-08-07T19:02:34.454Z,100999.30
2022-08-07T19:05:24.738Z,101002.34
2022-08-07T19:08:10.811Z,101004.45
2022-08-07T19:10:59.319Z,101007.14
2022-08-07T19:13:49.977Z,101006.38
2022-08-07T19:17:00.747Z,101009.77
2022-08-07T19:19:36.253Z,101011.09
2022-08-07T19:27:02.029Z,101014.98
2022-08-07T19:31:05.816Z,101014.63
2022-08-07T19:32:28.968Z,101013.24
2022-08-07T19:35:11.076Z,101014.27
2022-08-07T19:37:55.268Z,101021.80
2022-08-07T19:40:30.902Z,101022.30
2022-08-07T19:43:11.015Z,101022.38
2022-08-07T19:46:05.357Z,101025.65
2022-08-07T19:48:54.566Z,101031.65
2022-08-07T19:51:53.126Z,101029.92
2022-08-07T19:54:30.888Z,101033.85
2022-08-07T19:58:01.761Z,101030.17
2022-08-07T20:00:08.923Z,101031.14
2022-08-07T20:02:52.121Z,101031.84
2022-08-07T20:05:28.137Z,101036.64
2022-08-07T20:08:03.907Z,101042.49
2022-08-07T20:10:52.154Z,101043.01
2022-08-07T20:13:34.337Z,101045.36
2022-08-07T20:16:04.677Z,101043.55
2022-08-07T20:18:34.494Z,101047.80
2022-08-07T20:21:21.045Z,101047.98
2022-08-07T20:24:07.411Z,101046.83
2022-08-07T20:26:45.870Z,101048.18
2022-08-07T20:29:47.109Z,101048.13
2022-08-07T20:32:22.889Z,101049.47
2022-08-07T20:35:25.258Z,101053.04
2022-08-07T20:37:58.852Z,101050.77
2022-08-07T20:40:32.298Z,101055.67
2022-08-07T20:43:14.918Z,101053.36
2022-08-07T20:46:29.014Z,101058.62
2022-08-07T20:49:53.868Z,101056.39
2022-08-07T20:51:35.937Z,101057.46
2022-08-07T20:54:12.227Z,101058.96
2022-08-07T20:56:51.676Z,101062.48
2022-08-07T21:00:05.245Z,101067.18
2022-08-07T21:02:38.370Z,101065.94
2022-08-07T21:05:16.350Z,101064.67
2022-08-07T21:07:50.301Z,101060.62
2022-08-07T21:10:29.448Z,101064.02
2022-08-07T21:13:03.518Z,101065.91
2022-08-07T21:15:58.434Z,101066.98
2022-08-07T21:18:33.518Z,101070.13
2022-08-07T21:21:05.284Z,101070.23
2022-08-07T21:24:12.362Z,101071.62
2022-08-07T21:27:09.851Z,101073.21
2022-08-07T21:29:53.067Z,101079.22
2022-08-07T21:32:47.866Z,101075.61
2022-08-07T21:35:34.557Z,101077.69
2022-08-07T21:38:31.056Z,101075.88
2022-08-07T21:41:24.526Z,101073.92
2022-08-07T21:44:08.209Z,101076.66
2022-08-07T21:46:55.563Z,101071.70
2022-08-07T21:49:40.625Z,101073.98
2022-08-07T21:52:58.324Z,101074.50
2022-08-07T21:55:48.441Z,101077.75
2022-08-07T21:58:52.227Z,101078.98
2022-08-07T22:02:07.188Z,101079.11
2022-08-07T22:04:25.620Z,101080.99
2022-08-07T22:07:02.084Z,101081.25
2022-08-07T22:09:38.054Z,101086.56
2022-08-07T22:12:31.527Z,101086.63
2022-08-07T22:16:42.456Z,101086.77
2022-08-07T22:18:02.263Z,101085.70
2022-08-07T22:20:39.921Z,101082.53
2022-08-07T22:23:29.241Z,101080.64
2022-08-07T22:26:06.142Z,101077.92
2022-08-07T22:28:53.918Z,101078.44
2022-08-07T22:32:06.018Z,101078.16
2022-08-07T22:34:49.717Z,101080.35
2022-08-07T22:37:28.135Z,101074.55
2022-08-07T22:40:27.732Z,101073.22
2022-08-07T22:43:19.357Z,101073.30
2022-08-07T22:46:42.727Z,101069.70
2022-08-07T22:49:33.975Z,101066.27
2022-08-07T22:52:37.143Z,101069.60
2022-08-07T22:55:38.928Z,101069.72
2022-08-07T22:58:22.170Z,101071.59
